sensor_id;sensor_type;location;lat;lon;timestamp;pressure;altitude;pressure_sealevel;temperature;humidity
36726;BME280;44936;52.086;5.150;2022-12-10T00:01:17;101366.03;;;0.47;100.00
36726;BME280;44936;52.086;5.150;2022-12-10T00:03:45;101291.88;;;0.10;100.00
36726;BME280;44936;52.086;5.150;2022-12-10T00:06:14;101347.16;;;0.48;100.00
36726;BME280;44936;52.086;5.150;2022-12-10T00:08:40;101285.38;;;0.01;100.00
36726;BME280;44936;52.086;5.150;2022-12-10T00:11:07;101297.75;;;0.08;100.00
36726;BME280;44936;52.086;5.150;2022-12-10T00:13:35;101309.50;;;0.35;100.00
36726;BME280;44936;52.086;5.150;2022-12-10T00:16:03;101289.06;;;0.06;100.00
36726;BME280;44936;52.086;5.150;2022-12-10T00:18:29;101269.72;;;0.14;100.00
36726;BME280;44936;52.086;5.150;2022-12-10T00:20:55;101340.38;;;0.34;100.00
36726;BME280;44936;52.086;5.150;2022-12-10T00:23:23;101283.19;;;-0.08;100.00
36726;BME280;44936;52.086;5.150;2022-12-10T00:25:52;101310.66;;;0.24;100.00
36726;BME280;44936;52.086;5.150;2022-12-10T00:28:17;101264.47;;;0.12;100.00
36726;BME280;44936;52.086;5.150;2022-12-10T00:30:49;101352.06;;;0.43;100.00
36726;BME280;44936;52.086;5.150;2022-12-10T00:33:15;101284.16;;;-0.06;100.00
36726;BME280;44936;52.086;5.150;2022-12-10T00:35:43;101365.97;;;0.45;100.00
36726;BME280;44936;52.086;5.150;2022-12-10T00:38:09;101287.69;;;0.12;100.00
36726;BME280;44936;52.086;5.150;2022-12-10T00:40:41;101326.94;;;0.23;100.00
36726;BME280;44936;52.086;5.150;2022-12-10T00:43:07;101301.00;;;0.04;100.00
36726;BME280;44936;52.086;5.150;2022-12-10T00:45:32;101287.28;;;0.05;100.00
36726;BME280;44936;52.086;5.150;2022-12-10T00:47:58;101305.09;;;0.16;100.00
36726;BME280;44936;52.086;5.150;2022-12-10T00:50:26;101363.06;;;0.39;100.00
36726;BME280;44936;52.086;5.150;2022-12-10T00:52:52;101297.69;;;0.06;100.00
36726;BME280;44936;52.086;5.150;2022-12-10T00:55:19;101293.19;;;0.02;100.00
36726;BME280;44936;52.086;5.150;2022-12-10T00:57:56;101333.06;;;0.25;100.00
36726;BME280;44936;52.086;5.150;2022-12-10T01:00:22;101306.88;;;0.01;100.00
36726;BME280;44936;52.086;5.150;2022-12-10T01:02:49;101374.06;;;0.53;100.00
36726;BME280;44936;52.086;5.150;2022-12-10T01:05:18;101280.44;;;0.21;100.00
36726;BME280;44936;52.086;5.150;2022-12-10T01:07:43;101360.19;;;0.67;100.00
36726;BME280;44936;52.086;5.150;2022-12-10T01:10:10;101330.00;;;0.32;100.00
36726;BME280;44936;52.086;5.150;2022-12-10T01:12:36;101380.88;;;0.35;100.00
36726;BME280;44936;52.086;5.150;2022-12-10T01:15:03;101376.59;;;0.35;100.00
36726;BME280;44936;52.086;5.150;2022-12-10T01:17:29;101322.66;;;0.23;100.00
36726;BME280;44936;52.086;5.150;2022-12-10T01:19:56;101366.84;;;0.30;100.00
36726;BME280;44936;52.086;5.150;2022-12-10T01:22:25;101331.63;;;0.30;100.00
36726;BME280;44936;52.086;5.150;2022-12-10T01:25:01;101345.31;;;0.45;100.00
36726;BME280;44936;52.086;5.150;2022-12-10T01:27:29;101339.69;;;0.36;100.00
36726;BME280;44936;52.086;5.150;2022-12-10T01:29:54;101313.00;;;0.19;100.00
36726;BME280;44936;52.086;5.150;2022-12-10T01:32:21;101355.63;;;0.45;100.00
36726;BME280;44936;52.086;5.150;2022-12-10T01:34:47;101328.47;;;0.19;100.00
36726;BME280;44936;52.086;5.150;2022-12-10T01:37:13;101326.78;;;0.20;100.00
36726;BME280;44936;52.086;5.150;2022-12-10T01:39:39;101332.09;;;0.23;100.00
36726;BME280;44936;52.086;5.150;2022-12-10T01:42:05;101344.25;;;0.25;100.00
36726;BME280;44936;52.086;5.150;2022-12-10T01:46:58;101404.00;;;0.66;100.00
36726;BME280;44936;52.086;5.150;2022-12-10T01:49:32;101354.34;;;0.53;100.00
36726;BME280;44936;52.086;5.150;2022-12-10T01:52:02;101385.66;;;0.77;100.00
36726;BME280;44936;52.086;5.150;2022-12-10T01:54:43;101404.38;;;0.90;100.00
36726;BME280;44936;52.086;5.150;2022-12-10T01:57:15;101406.88;;;0.88;100.00
36726;BME280;44936;52.086;5.150;2022-12-10T01:59:43;101359.09;;;0.62;100.00
36726;BME280;44936;52.086;5.150;2022-12-10T02:02:42;101411.41;;;0.76;100.00
36726;BME280;44936;52.086;5.150;2022-12-10T02:05:23;101373.03;;;0.49;100.00
36726;BME280;44936;52.086;5.150;2022-12-10T02:08:24;101376.91;;;0.57;100.00
36726;BME280;44936;52.086;5.150;2022-12-10T02:11:14;101399.59;;;0.63;100.00
36726;BME280;44936;52.086;5.150;2022-12-10T02:14:29;101345.88;;;0.56;100.00
36726;BME280;44936;52.086;5.150;2022-12-10T02:17:04;101332.25;;;0.42;100.00
36726;BME280;44936;52.086;5.150;2022-12-10T02:20:06;101407.47;;;0.66;100.00
36726;BME280;44936;52.086;5.150;2022-12-10T02:22:49;101337.66;;;0.31;100.00
36726;BME280;44936;52.086;5.150;2022-12-10T02:31:26;101374.41;;;0.43;100.00
36726;BME280;44936;52.086;5.150;2022-12-10T02:33:58;101365.84;;;0.60;100.00
36726;BME280;44936;52.086;5.150;2022-12-10T02:37:04;101315.94;;;0.43;100.00
36726;BME280;44936;52.086;5.150;2022-12-10T02:39:38;101330.19;;;0.53;100.00
36726;BME280;44936;52.086;5.150;2022-12-10T02:42:06;101395.38;;;0.81;100.00
36726;BME280;44936;52.086;5.150;2022-12-10T02:44:53;101370.53;;;0.51;100.00
36726;BME280;44936;52.086;5.150;2022-12-10T02:47:21;101332.91;;;0.38;100.00
36726;BME280;44936;52.086;5.150;2022-12-10T02:49:52;101321.22;;;0.12;100.00
36726;BME280;44936;52.086;5.150;2022-12-10T02:52:19;101376.56;;;0.68;100.00
36726;BME280;44936;52.086;5.150;2022-12-10T02:55:11;101380.53;;;0.61;100.00
36726;BME280;44936;52.086;5.150;2022-12-10T02:58:03;101398.78;;;0.64;100.00
36726;BME280;44936;52.086;5.150;2022-12-10T03:00:39;101396.25;;;0.82;100.00
36726;BME280;44936;52.086;5.150;2022-12-10T03:03:27;101390.69;;;0.74;100.00
36726;BME280;44936;52.086;5.150;2022-12-10T03:06:03;101395.50;;;0.84;100.00
36726;BME280;44936;52.086;5.150;2022-12-10T03:11:31;101369.72;;;0.68;100.00
36726;BME280;44936;52.086;5.150;2022-12-10T03:14:05;101369.47;;;0.80;100.00
36726;BME280;44936;52.086;5.150;2022-12-10T03:16:40;101392.75;;;0.98;100.00
36726;BME280;44936;52.086;5.150;2022-12-10T03:19:11;101388.31;;;0.79;100.00
36726;BME280;44936;52.086;5.150;2022-12-10T03:21:40;101341.63;;;0.74;100.00
36726;BME280;44936;52.086;5.150;2022-12-10T03:24:50;101361.94;;;0.84;100.00
36726;BME280;44936;52.086;5.150;2022-12-10T03:27:29;101347.06;;;0.63;100.00
36726;BME280;44936;52.086;5.150;2022-12-10T03:30:22;101366.38;;;0.87;100.00
36726;BME280;44936;52.086;5.150;2022-12-10T03:32:48;101347.81;;;0.78;100.00
36726;BME280;44936;52.086;5.150;2022-12-10T03:35:15;101366.06;;;0.81;100.00
36726;BME280;44936;52.086;5.150;2022-12-10T03:37:43;101365.88;;;0.94;100.00
36726;BME280;44936;52.086;5.150;2022-12-10T03:40:10;101346.78;;;0.74;100.00
36726;BME280;44936;52.086;5.150;2022-12-10T03:42:38;101318.06;;;0.68;100.00
36726;BME280;44936;52.086;5.150;2022-12-10T03:45:33;101324.34;;;0.55;100.00
36726;BME280;44936;52.086;5.150;2022-12-10T03:47:58;101384.75;;;0.93;100.00
36726;BME280;44936;52.086;5.150;2022-12-10T03:50:25;101321.25;;;0.63;100.00
36726;BME280;44936;52.086;5.150;2022-12-10T03:52:51;101311.91;;;0.48;100.00
36726;BME280;44936;52.086;5.150;2022-12-10T03:55:16;101324.47;;;0.59;100.00
36726;BME280;44936;52.086;5.150;2022-12-10T03:57:45;101322.31;;;0.50;100.00
36726;BME280;44936;52.086;5.150;2022-12-10T04:00:11;101371.88;;;0.77;100.00
36726;BME280;44936;52.086;5.150;2022-12-10T04:02:36;101341.63;;;0.74;100.00
36726;BME280;44936;52.086;5.150;2022-12-10T04:05:04;101354.34;;;0.88;100.00
36726;BME280;44936;52.086;5.150;2022-12-10T04:07:32;101301.03;;;0.54;100.00
36726;BME280;44936;52.086;5.150;2022-12-10T04:09:58;101339.88;;;0.73;100.00
36726;BME280;44936;52.086;5.150;2022-12-10T04:12:23;101343.25;;;0.72;100.00
36726;BME280;44936;52.086;5.150;2022-12-10T04:14:52;101408.50;;;0.70;100.00
36726;BME280;44936;52.086;5.150;2022-12-10T04:17:36;101361.34;;;0.56;100.00
36726;BME280;44936;52.086;5.150;2022-12-10T04:20:02;101336.84;;;0.15;100.00
36726;BME280;44936;52.086;5.150;2022-12-10T04:22:28;101378.28;;;0.51;100.00
36726;BME280;44936;52.086;5.150;2022-12-10T04:25:15;101374.25;;;0.56;100.00
36726;BME280;44936;52.086;5.150;2022-12-10T04:27:59;101327.56;;;0.35;100.00
36726;BME280;44936;52.086;5.150;2022-12-10T04:30:25;101356.50;;;0.62;100.00
36726;BME280;44936;52.086;5.150;2022-12-10T04:32:50;101326.44;;;0.46;100.00
36726;BME280;44936;52.086;5.150;2022-12-10T04:35:16;101332.50;;;0.31;100.00
36726;BME280;44936;52.086;5.150;2022-12-10T04:37:41;101353.94;;;0.46;100.00
36726;BME280;44936;52.086;5.150;2022-12-10T04:40:08;101370.94;;;0.59;100.00
36726;BME280;44936;52.086;5.150;2022-12-10T04:42:34;101401.91;;;0.75;100.00
36726;BME280;44936;52.086;5.150;2022-12-10T04:45:15;101390.69;;;0.25;100.00
36726;BME280;44936;52.086;5.150;2022-12-10T04:48:01;101408.13;;;0.62;100.00
36726;BME280;44936;52.086;5.150;2022-12-10T04:50:29;101362.25;;;0.56;100.00
36726;BME280;44936;52.086;5.150;2022-12-10T04:52:54;101327.66;;;0.37;100.00
36726;BME280;44936;52.086;5.150;2022-12-10T04:55:21;101386.97;;;0.69;100.00
36726;BME280;44936;52.086;5.150;2022-12-10T04:57:49;101369.72;;;0.68;100.00
36726;BME280;44936;52.086;5.150;2022-12-10T05:00:17;101401.63;;;0.87;100.00
36726;BME280;44936;52.086;5.150;2022-12-10T05:02:48;101324.09;;;0.35;100.00
36726;BME280;44936;52.086;5.150;2022-12-10T05:05:14;101405.09;;;0.87;100.00
36726;BME280;44936;52.086;5.150;2022-12-10T05:07:40;101350.69;;;0.50;100.00
36726;BME280;44936;52.086;5.150;2022-12-10T05:10:05;101332.50;;;0.47;100.00
36726;BME280;44936;52.086;5.150;2022-12-10T05:12:32;101338.47;;;0.46;100.00
36726;BME280;44936;52.086;5.150;2022-12-10T05:14:59;101370.78;;;0.55;100.00
36726;BME280;44936;52.086;5.150;2022-12-10T05:17:25;101349.97;;;0.52;100.00
36726;BME280;44936;52.086;5.150;2022-12-10T05:19:56;101384.56;;;0.72;100.00
36726;BME280;44936;52.086;5.150;2022-12-10T05:22:30;101349.91;;;0.02;100.00
36726;BME280;44936;52.086;5.150;2022-12-10T05:25:14;101319.94;;;0.20;100.00
36726;BME280;44936;52.086;5.150;2022-12-10T05:27:39;101381.13;;;0.39;100.00
36726;BME280;44936;52.086;5.150;2022-12-10T05:30:07;101350.06;;;0.38;100.00
36726;BME280;44936;52.086;5.150;2022-12-10T05:32:33;101354.19;;;0.34;100.00
36726;BME280;44936;52.086;5.150;2022-12-10T05:35:02;101353.00;;;0.27;100.00
36726;BME280;44936;52.086;5.150;2022-12-10T05:37:28;101335.88;;;0.30;100.00
36726;BME280;44936;52.086;5.150;2022-12-10T05:39:54;101316.47;;;0.20;100.00
36726;BME280;44936;52.086;5.150;2022-12-10T05:42:19;101348.59;;;0.43;100.00
36726;BME280;44936;52.086;5.150;2022-12-10T05:44:46;101375.94;;;0.72;100.00
36726;BME280;44936;52.086;5.150;2022-12-10T05:47:12;101323.81;;;0.28;100.00
36726;BME280;44936;52.086;5.150;2022-12-10T05:49:38;101313.88;;;0.36;100.00
36726;BME280;44936;52.086;5.150;2022-12-10T05:52:03;101319.72;;;0.50;100.00
36726;BME280;44936;52.086;5.150;2022-12-10T05:54:31;101383.81;;;0.91;100.00
36726;BME280;44936;52.086;5.150;2022-12-10T05:57:06;101399.22;;;0.90;100.00
36726;BME280;44936;52.086;5.150;2022-12-10T05:59:33;101387.22;;;0.74;100.00
36726;BME280;44936;52.086;5.150;2022-12-10T06:01:59;101343.16;;;0.20;100.00
36726;BME280;44936;52.086;5.150;2022-12-10T06:04:29;101432.97;;;0.76;100.00
36726;BME280;44936;52.086;5.150;2022-12-10T06:06:57;101388.13;;;0.09;100.00
36726;BME280;44936;52.086;5.150;2022-12-10T06:09:22;101358.06;;;0.10;100.00
36726;BME280;44936;52.086;5.150;2022-12-10T06:11:47;101338.88;;;0.21;100.00
36726;BME280;44936;52.086;5.150;2022-12-10T06:14:13;101361.22;;;0.37;100.00
36726;BME280;44936;52.086;5.150;2022-12-10T06:16:41;101349.19;;;0.37;100.00
36726;BME280;44936;52.086;5.150;2022-12-10T06:19:06;101354.16;;;0.50;100.00
36726;BME280;44936;52.086;5.150;2022-12-10T06:21:36;101347.31;;;0.51;100.00
36726;BME280;44936;52.086;5.150;2022-12-10T06:24:03;101344.91;;;0.54;100.00
36726;BME280;44936;52.086;5.150;2022-12-10T06:26:31;101397.13;;;0.82;100.00
36726;BME280;44936;52.086;5.150;2022-12-10T06:29:02;101414.44;;;1.01;100.00
36726;BME280;44936;52.086;5.150;2022-12-10T06:31:30;101396.19;;;0.80;100.00
36726;BME280;44936;52.086;5.150;2022-12-10T06:33:55;101380.47;;;0.43;100.00
36726;BME280;44936;52.086;5.150;2022-12-10T06:36:21;101425.88;;;0.72;100.00
36726;BME280;44936;52.086;5.150;2022-12-10T06:38:47;101412.91;;;0.71;100.00
36726;BME280;44936;52.086;5.150;2022-12-10T06:41:14;101367.56;;;0.43;100.00
36726;BME280;44936;52.086;5.150;2022-12-10T06:43:40;101399.72;;;0.66;100.00
36726;BME280;44936;52.086;5.150;2022-12-10T06:46:13;101445.19;;;0.97;100.00
36726;BME280;44936;52.086;5.150;2022-12-10T06:48:44;101421.00;;;0.95;100.00
36726;BME280;44936;52.086;5.150;2022-12-10T06:51:11;101377.63;;;0.71;100.00
36726;BME280;44936;52.086;5.150;2022-12-10T06:53:37;101381.59;;;0.48;100.00
36726;BME280;44936;52.086;5.150;2022-12-10T06:56:04;101390.28;;;0.67;100.00
36726;BME280;44936;52.086;5.150;2022-12-10T06:58:31;101416.19;;;0.68;100.00
36726;BME280;44936;52.086;5.150;2022-12-10T07:01:16;101391.66;;;0.60;100.00
36726;BME280;44936;52.086;5.150;2022-12-10T07:03:48;101426.34;;;0.81;100.00
36726;BME280;44936;52.086;5.150;2022-12-10T07:06:26;101426.59;;;0.37;100.00
36726;BME280;44936;52.086;5.150;2022-12-10T07:08:53;101437.31;;;0.61;100.00
36726;BME280;44936;52.086;5.150;2022-12-10T07:11:21;101429.00;;;0.67;100.00
36726;BME280;44936;52.086;5.150;2022-12-10T07:13:51;101403.53;;;0.56;100.00
36726;BME280;44936;52.086;5.150;2022-12-10T07:16:22;101423.78;;;0.65;100.00
36726;BME280;44936;52.086;5.150;2022-12-10T07:18:48;101433.22;;;0.65;100.00
36726;BME280;44936;52.086;5.150;2022-12-10T07:21:25;101406.66;;;0.51;100.00
36726;BME280;44936;52.086;5.150;2022-12-10T07:23:53;101453.59;;;0.44;100.00
36726;BME280;44936;52.086;5.150;2022-12-10T07:26:20;101406.88;;;0.07;100.00
36726;BME280;44936;52.086;5.150;2022-12-10T07:28:46;101446.06;;;0.63;100.00
36726;BME280;44936;52.086;5.150;2022-12-10T07:31:12;101428.22;;;0.68;100.00
36726;BME280;44936;52.086;5.150;2022-12-10T07:33:41;101476.69;;;0.90;100.00
36726;BME280;44936;52.086;5.150;2022-12-10T07:36:08;101393.75;;;0.51;100.00
36726;BME280;44936;52.086;5.150;2022-12-10T07:38:37;101398.28;;;0.39;100.00
36726;BME280;44936;52.086;5.150;2022-12-10T07:41:06;101441.19;;;0.69;100.00
36726;BME280;44936;52.086;5.150;2022-12-10T07:43:37;101418.47;;;0.62;100.00
36726;BME280;44936;52.086;5.150;2022-12-10T07:46:18;101462.63;;;0.52;100.00
36726;BME280;44936;52.086;5.150;2022-12-10T07:48:47;101428.28;;;0.53;100.00
36726;BME280;44936;52.086;5.150;2022-12-10T07:51:23;101473.38;;;0.60;100.00
36726;BME280;44936;52.086;5.150;2022-12-10T07:53:51;101436.53;;;0.46;100.00
36726;BME280;44936;52.086;5.150;2022-12-10T07:56:21;101494.53;;;1.01;100.00
36726;BME280;44936;52.086;5.150;2022-12-10T07:58:48;101474.59;;;0.99;100.00
36726;BME280;44936;52.086;5.150;2022-12-10T08:01:32;101436.28;;;0.57;100.00
36726;BME280;44936;52.086;5.150;2022-12-10T08:03:57;101429.34;;;0.56;100.00
36726;BME280;44936;52.086;5.150;2022-12-10T08:06:27;101507.34;;;0.51;100.00
36726;BME280;44936;52.086;5.150;2022-12-10T08:08:58;101506.81;;;0.73;100.00
36726;BME280;44936;52.086;5.150;2022-12-10T08:11:23;101477.50;;;0.72;100.00
36726;BME280;44936;52.086;5.150;2022-12-10T08:13:51;101478.56;;;0.76;100.00
36726;BME280;44936;52.086;5.150;2022-12-10T08:16:21;101501.53;;;0.88;100.00
36726;BME280;44936;52.086;5.150;2022-12-10T08:18:50;101443.28;;;0.44;100.00
36726;BME280;44936;52.086;5.150;2022-12-10T08:21:28;101440.81;;;0.45;100.00
36726;BME280;44936;52.086;5.150;2022-12-10T08:24:08;101443.47;;;0.47;100.00
36726;BME280;44936;52.086;5.150;2022-12-10T08:26:33;101448.25;;;0.24;100.00
36726;BME280;44936;52.086;5.150;2022-12-10T08:29:05;101482.97;;;0.46;100.00
36726;BME280;44936;52.086;5.150;2022-12-10T08:31:33;101526.25;;;0.82;100.00
36726;BME280;44936;52.086;5.150;2022-12-10T08:34:03;101497.03;;;0.83;100.00
36726;BME280;44936;52.086;5.150;2022-12-10T08:36:37;101442.25;;;0.56;100.00
36726;BME280;44936;52.086;5.150;2022-12-10T08:39:02;101452.91;;;0.63;100.00
36726;BME280;44936;52.086;5.150;2022-12-10T08:41:35;101538.91;;;0.78;100.00
36726;BME280;44936;52.086;5.150;2022-12-10T08:44:05;101509.91;;;0.51;100.00
36726;BME280;44936;52.086;5.150;2022-12-10T08:46:34;101523.63;;;0.50;100.00
36726;BME280;44936;52.086;5.150;2022-12-10T08:49:12;101563.97;;;0.48;100.00
36726;BME280;44936;52.086;5.150;2022-12-10T08:51:40;101559.91;;;0.53;100.00
36726;BME280;44936;52.086;5.150;2022-12-10T08:57:16;101494.81;;;0.42;100.00
36726;BME280;44936;52.086;5.150;2022-12-10T08:59:42;101477.16;;;0.50;100.00
36726;BME280;44936;52.086;5.150;2022-12-10T09:02:10;101520.03;;;0.63;100.00
36726;BME280;44936;52.086;5.150;2022-12-10T09:04:42;101557.16;;;0.81;100.00
36726;BME280;44936;52.086;5.150;2022-12-10T09:07:10;101571.19;;;0.86;100.00
36726;BME280;44936;52.086;5.150;2022-12-10T09:09:36;101526.56;;;0.72;100.00
36726;BME280;44936;52.086;5.150;2022-12-10T09:12:21;101573.16;;;1.06;100.00
36726;BME280;44936;52.086;5.150;2022-12-10T09:14:51;101497.44;;;0.75;100.00
36726;BME280;44936;52.086;5.150;2022-12-10T09:17:19;101486.56;;;0.33;100.00
36726;BME280;44936;52.086;5.150;2022-12-10T09:20:12;101582.47;;;0.88;100.00
36726;BME280;44936;52.086;5.150;2022-12-10T09:22:39;101543.19;;;0.77;100.00
36726;BME280;44936;52.086;5.150;2022-12-10T09:25:08;101565.31;;;0.72;100.00
36726;BME280;44936;52.086;5.150;2022-12-10T09:28:14;101593.00;;;0.91;100.00
36726;BME280;44936;52.086;5.150;2022-12-10T09:30:40;101598.31;;;0.94;100.00
36726;BME280;44936;52.086;5.150;2022-12-10T09:33:23;101558.84;;;0.64;100.00
36726;BME280;44936;52.086;5.150;2022-12-10T09:35:49;101579.44;;;0.95;100.00
36726;BME280;44936;52.086;5.150;2022-12-10T09:38:20;101563.84;;;0.94;100.00
36726;BME280;44936;52.086;5.150;2022-12-10T09:41:10;101596.25;;;1.20;100.00
36726;BME280;44936;52.086;5.150;2022-12-10T09:46:52;101620.78;;;1.11;100.00
36726;BME280;44936;52.086;5.150;2022-12-10T09:52:12;101614.09;;;1.15;100.00
36726;BME280;44936;52.086;5.150;2022-12-10T09:54:52;101617.94;;;1.23;100.00
36726;BME280;44936;52.086;5.150;2022-12-10T09:57:31;101617.16;;;1.24;100.00
36726;BME280;44936;52.086;5.150;2022-12-10T10:00:26;101615.56;;;0.79;100.00
36726;BME280;44936;52.086;5.150;2022-12-10T10:02:51;101565.88;;;0.36;100.00
36726;BME280;44936;52.086;5.150;2022-12-10T10:05:44;101623.53;;;0.98;100.00
36726;BME280;44936;52.086;5.150;2022-12-10T10:08:35;101626.06;;;0.82;100.00
36726;BME280;44936;52.086;5.150;2022-12-10T10:11:03;101540.81;;;0.49;100.00
36726;BME280;44936;52.086;5.150;2022-12-10T10:14:17;101633.09;;;0.84;100.00
36726;BME280;44936;52.086;5.150;2022-12-10T10:17:20;101563.69;;;0.74;100.00
36726;BME280;44936;52.086;5.150;2022-12-10T10:19:48;101596.00;;;0.99;100.00
36726;BME280;44936;52.086;5.150;2022-12-10T10:22:14;101615.84;;;1.00;100.00
36726;BME280;44936;52.086;5.150;2022-12-10T10:24:45;101561.53;;;0.51;100.00
36726;BME280;44936;52.086;5.150;2022-12-10T10:27:35;101576.69;;;0.92;100.00
36726;BME280;44936;52.086;5.150;2022-12-10T10:30:29;101581.03;;;0.93;100.00
36726;BME280;44936;52.086;5.150;2022-12-10T10:32:56;101552.13;;;0.68;100.00
36726;BME280;44936;52.086;5.150;2022-12-10T10:35:41;101629.50;;;1.13;100.00
36726;BME280;44936;52.086;5.150;2022-12-10T10:38:16;101581.53;;;1.02;100.00
36726;BME280;44936;52.086;5.150;2022-12-10T10:40:45;101580.25;;;0.94;100.00
36726;BME280;44936;52.086;5.150;2022-12-10T10:43:23;101621.66;;;1.12;100.00
36726;BME280;44936;52.086;5.150;2022-12-10T10:46:02;101573.72;;;1.01;100.00
36726;BME280;44936;52.086;5.150;2022-12-10T10:48:38;101544.81;;;1.08;100.00
36726;BME280;44936;52.086;5.150;2022-12-10T10:51:19;101573.31;;;1.09;100.00
36726;BME280;44936;52.086;5.150;2022-12-10T10:53:55;101607.94;;;1.46;100.00
36726;BME280;44936;52.086;5.150;2022-12-10T10:56:29;101548.50;;;1.13;100.00
36726;BME280;44936;52.086;5.150;2022-12-10T10:59:17;101553.69;;;1.13;100.00
36726;BME280;44936;52.086;5.150;2022-12-10T11:01:49;101621.41;;;1.40;100.00
36726;BME280;44936;52.086;5.150;2022-12-10T11:04:18;101583.72;;;1.27;100.00
36726;BME280;44936;52.086;5.150;2022-12-10T11:06:55;101579.69;;;1.16;100.00
36726;BME280;44936;52.086;5.150;2022-12-10T11:09:28;101636.94;;;1.56;100.00
36726;BME280;44936;52.086;5.150;2022-12-10T11:14:59;101584.09;;;0.86;100.00
36726;BME280;44936;52.086;5.150;2022-12-10T11:17:26;101576.78;;;0.94;100.00
36726;BME280;44936;52.086;5.150;2022-12-10T11:20:22;101626.50;;;1.22;100.00
36726;BME280;44936;52.086;5.150;2022-12-10T11:22:59;101616.28;;;1.24;100.00
36726;BME280;44936;52.086;5.150;2022-12-10T11:25:49;101621.34;;;1.22;100.00
36726;BME280;44936;52.086;5.150;2022-12-10T11:31:33;101610.44;;;1.28;100.00
36726;BME280;44936;52.086;5.150;2022-12-10T11:37:55;101540.94;;;1.00;100.00
36726;BME280;44936;52.086;5.150;2022-12-10T11:40:36;101535.03;;;1.02;100.00
36726;BME280;44936;52.086;5.150;2022-12-10T11:49:14;101607.13;;;1.30;100.00
36726;BME280;44936;52.086;5.150;2022-12-10T11:52:01;101608.00;;;1.47;100.00
36726;BME280;44936;52.086;5.150;2022-12-10T12:00:01;101606.25;;;1.30;100.00
36726;BME280;44936;52.086;5.150;2022-12-10T12:14:12;101533.00;;;1.13;100.00
36726;BME280;44936;52.086;5.150;2022-12-10T12:16:48;101542.56;;;0.98;100.00
36726;BME280;44936;52.086;5.150;2022-12-10T12:19:29;101529.06;;;1.03;100.00
36726;BME280;44936;52.086;5.150;2022-12-10T12:22:00;101535.22;;;0.89;100.00
36726;BME280;44936;52.086;5.150;2022-12-10T12:24:36;101604.13;;;1.39;100.00
36726;BME280;44936;52.086;5.150;2022-12-10T12:30:04;101611.91;;;1.06;100.00
36726;BME280;44936;52.086;5.150;2022-12-10T12:32:38;101547.34;;;0.59;100.00
36726;BME280;44936;52.086;5.150;2022-12-10T12:35:13;101612.06;;;1.09;100.00
36726;BME280;44936;52.086;5.150;2022-12-10T12:37:46;101534.75;;;0.49;100.00
36726;BME280;44936;52.086;5.150;2022-12-10T12:40:33;101554.19;;;0.90;100.00
36726;BME280;44936;52.086;5.150;2022-12-10T12:43:07;101535.41;;;0.61;100.00
36726;BME280;44936;52.086;5.150;2022-12-10T12:45:44;101528.84;;;0.82;100.00
36726;BME280;44936;52.086;5.150;2022-12-10T12:48:27;101597.44;;;1.10;100.00
36726;BME280;44936;52.086;5.150;2022-12-10T12:51:16;101516.66;;;0.80;100.00
36726;BME280;44936;52.086;5.150;2022-12-10T12:53:45;101528.50;;;1.09;100.00
36726;BME280;44936;52.086;5.150;2022-12-10T13:02:06;101579.50;;;1.13;100.00
36726;BME280;44936;52.086;5.150;2022-12-10T13:04:35;101551.34;;;1.34;100.00
36726;BME280;44936;52.086;5.150;2022-12-10T13:12:31;101600.25;;;1.63;100.00
36726;BME280;44936;52.086;5.150;2022-12-10T13:15:03;101585.72;;;1.49;100.00
36726;BME280;44936;52.086;5.150;2022-12-10T13:17:38;101580.19;;;1.25;100.00
36726;BME280;44936;52.086;5.150;2022-12-10T13:20:29;101599.69;;;1.53;100.00
36726;BME280;44936;52.086;5.150;2022-12-10T13:23:29;101554.97;;;1.37;100.00
36726;BME280;44936;52.086;5.150;2022-12-10T13:26:25;101573.31;;;1.42;100.00
36726;BME280;44936;52.086;5.150;2022-12-10T13:28:53;101551.22;;;1.32;100.00
36726;BME280;44936;52.086;5.150;2022-12-10T13:31:38;101543.97;;;1.41;100.00
36726;BME280;44936;52.086;5.150;2022-12-10T13:34:25;101600.25;;;1.63;100.00
36726;BME280;44936;52.086;5.150;2022-12-10T13:37:10;101592.28;;;1.42;100.00
36726;BME280;44936;52.086;5.150;2022-12-10T13:40:00;101606.88;;;0.93;100.00
36726;BME280;44936;52.086;5.150;2022-12-10T13:42:56;101549.72;;;0.87;100.00
36726;BME280;44936;52.086;5.150;2022-12-10T13:45:41;101603.00;;;1.01;100.00
36726;BME280;44936;52.086;5.150;2022-12-10T13:48:29;101557.88;;;0.78;100.00
36726;BME280;44936;52.086;5.150;2022-12-10T13:51:11;101616.50;;;1.28;100.00
36726;BME280;44936;52.086;5.150;2022-12-10T14:07:18;101627.16;;;1.02;100.00
36726;BME280;44936;52.086;5.150;2022-12-10T14:09:50;101558.03;;;0.65;100.00
36726;BME280;44936;52.086;5.150;2022-12-10T14:12:25;101568.84;;;0.74;100.00
36726;BME280;44936;52.086;5.150;2022-12-10T14:15:23;101614.69;;;0.95;100.00
36726;BME280;44936;52.086;5.150;2022-12-10T14:18:03;101546.56;;;0.76;100.00
36726;BME280;44936;52.086;5.150;2022-12-10T14:20:32;101563.53;;;0.88;100.00
36726;BME280;44936;52.086;5.150;2022-12-10T14:23:05;101596.22;;;0.71;100.00
36726;BME280;44936;52.086;5.150;2022-12-10T14:26:14;101570.19;;;0.68;100.00
36726;BME280;44936;52.086;5.150;2022-12-10T14:28:57;101529.75;;;0.36;100.00
36726;BME280;44936;52.086;5.150;2022-12-10T14:31:33;101559.44;;;0.60;100.00
36726;BME280;44936;52.086;5.150;2022-12-10T14:34:04;101557.69;;;0.59;100.00
36726;BME280;44936;52.086;5.150;2022-12-10T14:36:51;101539.44;;;0.56;100.00
36726;BME280;44936;52.086;5.150;2022-12-10T14:39:21;101603.72;;;0.82;100.00
36726;BME280;44936;52.086;5.150;2022-12-10T14:41:56;101556.91;;;0.76;100.00
36726;BME280;44936;52.086;5.150;2022-12-10T14:44:23;101533.72;;;0.62;100.00